Rechercher aéroport 
image banner adimage banner adimage banner ad
image banner ad

8CA9 - Kgtv-10 Parking Lot

Situé à San Diego, United States

ICAO - 8CA9, IATA -

Données fournies par Airmate  

Information générale

Coordonnées: N32°43'13" W117°5'51"
Élévation : 200 feet MSL.
Variation magnétique : 13° East
Voir autres Aéroports à California

Données opérationnelles

Special qualification required
Heure actuelle UTC:
Heure actuelle locale:
Météo à : KSAN - San Diego Intl ( 9 km )
METAR: KSAN 231351Z 31004KT 8SM FEW009 SCT120 21/18 A2993 RMK AO2 SLP135 T02060178
TAF: KSAN 231125Z 2312/2418 31003KT P6SM FEW007 BKN120 FM231800 30010KT P6SM SCT120 FM240200 31004KT P6SM FEW008 SCT120 FM240900 32003KT 5SM BR BKN007 FM241700 28006KT P6SM FEW010 BKN100
Voir NOTAMs / SUP AIP / TFR affectant cet aéroport [VIEW]
Fréquences de communication: [VIEW]

Pistes:

Coordonnées de l'aéroport

Adresse: San Diego United States

Vue satellite de 8CA9